createdAt,value
2019-05-20T00:00:21.495Z,9.40
2019-05-20T00:00:57.567Z,9.55
2019-05-20T00:01:34.255Z,11.57
2019-05-20T00:02:23.078Z,9.13
2019-05-20T00:02:48.277Z,9.83
2019-05-20T00:03:24.875Z,10.90
2019-05-20T00:04:01.819Z,9.70
2019-05-20T00:04:38.244Z,9.85
2019-05-20T00:05:14.256Z,9.78
2019-05-20T00:05:50.790Z,11.68
2019-05-20T00:06:26.359Z,9.70
2019-05-20T00:07:02.984Z,9.50
2019-05-20T00:07:39.704Z,10.25
2019-05-20T00:08:16.110Z,10.55
2019-05-20T00:08:53.643Z,9.95
2019-05-20T00:09:30.100Z,9.97
2019-05-20T00:10:06.108Z,9.47
2019-05-20T00:10:42.598Z,9.90
2019-05-20T00:11:18.974Z,10.28
2019-05-20T00:11:55.626Z,10.25
2019-05-20T00:12:32.138Z,10.23
2019-05-20T00:13:09.085Z,16.52
2019-05-20T00:13:44.532Z,10.20
2019-05-20T00:14:20.632Z,10.17
2019-05-20T00:14:57.331Z,10.07
2019-05-20T00:15:33.463Z,9.63
2019-05-20T00:16:10.341Z,10.88
2019-05-20T00:16:46.926Z,9.20
2019-05-20T00:17:22.418Z,9.50
2019-05-20T00:17:58.554Z,10.78
2019-05-20T00:18:35.197Z,10.05
2019-05-20T00:19:11.629Z,9.45
2019-05-20T00:19:50.665Z,9.43
2019-05-20T00:20:26.565Z,9.25
2019-05-20T00:21:02.932Z,9.60
2019-05-20T00:21:39.376Z,10.08
2019-05-20T00:22:15.738Z,9.48
2019-05-20T00:22:51.761Z,9.60
2019-05-20T00:23:27.735Z,9.83
2019-05-20T00:24:04.092Z,10.53
2019-05-20T00:24:40.788Z,9.78
2019-05-20T00:25:17.717Z,9.80
2019-05-20T00:25:54.592Z,9.95
2019-05-20T00:26:30.058Z,10.37
2019-05-20T00:27:06.994Z,9.85
2019-05-20T00:27:43.924Z,9.10
2019-05-20T00:28:19.499Z,10.58
2019-05-20T00:28:55.719Z,9.53
2019-05-20T00:29:32.763Z,10.13
2019-05-20T00:30:09.153Z,10.32
2019-05-20T00:30:45.157Z,9.55
2019-05-20T00:31:21.554Z,10.30
2019-05-20T00:31:58.053Z,10.48
2019-05-20T00:32:41.106Z,10.55
2019-05-20T00:33:13.982Z,11.73
2019-05-20T00:33:50.414Z,11.40
2019-05-20T00:34:34.607Z,10.27
2019-05-20T00:35:04.293Z,11.07
2019-05-20T00:35:39.725Z,10.72
2019-05-20T00:36:15.723Z,12.03
2019-05-20T00:36:51.784Z,12.40
2019-05-20T00:37:27.225Z,10.57
2019-05-20T00:38:03.352Z,11.18
2019-05-20T00:38:39.961Z,10.23
2019-05-20T00:39:21.779Z,10.03
2019-05-20T00:39:57.910Z,10.80
2019-05-20T00:40:34.286Z,10.53
2019-05-20T00:41:10.661Z,10.30
2019-05-20T00:41:47.599Z,10.88
2019-05-20T00:42:24.182Z,9.93
2019-05-20T00:43:00.027Z,10.40
2019-05-20T00:43:36.648Z,10.55
2019-05-20T00:44:13.023Z,10.28
2019-05-20T00:44:48.453Z,9.57
2019-05-20T00:45:25.038Z,10.03
2019-05-20T00:46:02.154Z,12.03
2019-05-20T00:46:38.270Z,9.90
2019-05-20T00:47:14.314Z,10.30
2019-05-20T00:47:50.310Z,11.43
2019-05-20T00:48:26.805Z,10.03
2019-05-20T00:49:03.504Z,10.18
2019-05-20T00:49:40.097Z,10.50
2019-05-20T00:50:15.656Z,9.78
2019-05-20T00:50:52.684Z,9.68
2019-05-20T00:51:28.990Z,10.40
2019-05-20T00:52:05.256Z,9.85
2019-05-20T00:52:42.209Z,10.63
2019-05-20T00:53:18.775Z,9.95
2019-05-20T00:53:55.109Z,11.50
2019-05-20T00:54:31.156Z,10.65
2019-05-20T00:55:08.276Z,10.00
2019-05-20T00:55:44.719Z,9.83
2019-05-20T00:56:21.034Z,10.90
2019-05-20T00:56:57.084Z,9.50
2019-05-20T00:57:33.284Z,10.50
2019-05-20T00:58:10.070Z,9.98
2019-05-20T00:58:46.071Z,10.03
2019-05-20T00:59:22.218Z,9.88
2019-05-20T00:59:59.089Z,9.15
2019-05-20T01:00:35.212Z,9.88
2019-05-20T01:01:11.388Z,9.30
2019-05-20T01:01:48.361Z,9.53
2019-05-20T01:02:24.427Z,9.70
2019-05-20T01:03:00.963Z,9.20
2019-05-20T01:03:37.384Z,9.80
2019-05-20T01:04:13.388Z,9.35
2019-05-20T01:04:49.429Z,9.10
2019-05-20T01:05:26.481Z,10.78
2019-05-20T01:06:03.104Z,11.38
2019-05-20T01:06:39.393Z,9.68
2019-05-20T01:07:16.268Z,10.30
2019-05-20T01:07:52.689Z,9.57
2019-05-20T01:08:28.386Z,9.83
2019-05-20T01:09:07.273Z,9.78
2019-05-20T01:09:44.446Z,8.85
2019-05-20T01:10:20.188Z,9.05
2019-05-20T01:10:57.503Z,10.72
2019-05-20T01:11:34.225Z,9.55
2019-05-20T01:12:10.263Z,9.60
2019-05-20T01:12:47.151Z,9.55
2019-05-20T01:13:24.028Z,8.95
2019-05-20T01:13:59.552Z,9.05
2019-05-20T01:14:35.932Z,9.33
2019-05-20T01:15:12.264Z,9.33
2019-05-20T01:15:48.400Z,9.68
2019-05-20T01:16:24.419Z,10.10
2019-05-20T01:17:00.730Z,9.55
2019-05-20T01:17:36.828Z,9.75
2019-05-20T01:18:13.194Z,9.75
2019-05-20T01:18:49.282Z,10.18
2019-05-20T01:19:25.294Z,9.55
2019-05-20T01:20:01.353Z,9.85
2019-05-20T01:20:38.325Z,10.18
2019-05-20T01:21:14.352Z,9.13
2019-05-20T01:21:50.358Z,9.78
2019-05-20T01:22:27.032Z,9.25
2019-05-20T01:23:03.628Z,10.32
2019-05-20T01:23:39.627Z,8.63
2019-05-20T01:24:15.624Z,10.23
2019-05-20T01:24:51.720Z,9.25
2019-05-20T01:25:28.407Z,9.33
2019-05-20T01:26:04.433Z,9.15
2019-05-20T01:26:40.564Z,9.70
2019-05-20T01:27:16.610Z,9.90
2019-05-20T01:27:52.968Z,10.35
2019-05-20T01:28:29.599Z,9.28
2019-05-20T01:29:07.013Z,9.90
2019-05-20T01:29:43.583Z,8.98
2019-05-20T01:30:21.050Z,8.70
2019-05-20T01:30:58.058Z,9.68
2019-05-20T01:31:34.478Z,9.03
2019-05-20T01:32:10.506Z,11.28
2019-05-20T01:32:47.132Z,9.40
2019-05-20T01:33:23.714Z,9.28
2019-05-20T01:34:00.156Z,10.58
2019-05-20T01:34:37.129Z,10.82
2019-05-20T01:35:14.588Z,12.20
2019-05-20T01:35:50.593Z,9.33
2019-05-20T01:36:27.481Z,8.65
2019-05-20T01:37:04.121Z,9.33
2019-05-20T01:37:40.243Z,9.05
2019-05-20T01:38:16.825Z,8.73
2019-05-20T01:38:53.733Z,8.75
2019-05-20T01:39:30.000Z,9.88
2019-05-20T01:40:06.526Z,8.88
2019-05-20T01:40:42.646Z,10.32
2019-05-20T01:41:18.806Z,9.75
2019-05-20T01:41:55.713Z,11.22
2019-05-20T01:42:32.499Z,10.58
2019-05-20T01:43:08.577Z,15.05
2019-05-20T01:43:44.599Z,11.33
2019-05-20T01:44:21.203Z,11.65
2019-05-20T01:44:57.745Z,11.20
2019-05-20T01:45:34.150Z,11.48
2019-05-20T01:46:11.087Z,11.05
2019-05-20T01:46:46.553Z,12.37
2019-05-20T01:47:22.574Z,11.83
2019-05-20T01:47:58.670Z,11.73
2019-05-20T01:48:34.789Z,11.50
2019-05-20T01:49:11.859Z,10.30
2019-05-20T01:49:48.727Z,11.05
2019-05-20T01:50:25.488Z,11.63
2019-05-20T01:51:01.937Z,11.80
2019-05-20T01:51:38.564Z,12.37
2019-05-20T01:52:14.037Z,11.63
2019-05-20T01:52:50.622Z,11.40
2019-05-20T01:53:27.109Z,11.47
2019-05-20T01:54:02.608Z,12.85
2019-05-20T01:54:39.029Z,11.60
2019-05-20T01:55:15.659Z,12.00
2019-05-20T01:55:51.460Z,11.57
2019-05-20T01:56:27.503Z,12.03
2019-05-20T01:57:04.155Z,10.58
2019-05-20T01:57:39.592Z,11.60
2019-05-20T01:58:15.761Z,11.95
2019-05-20T01:58:52.250Z,12.45
2019-05-20T01:59:28.393Z,12.37
2019-05-20T02:00:06.580Z,11.33
2019-05-20T02:00:43.180Z,10.70
2019-05-20T02:01:19.026Z,11.97
2019-05-20T02:01:55.112Z,11.50
2019-05-20T02:02:31.301Z,14.73
2019-05-20T02:03:07.485Z,13.95
2019-05-20T02:03:43.936Z,14.40
2019-05-20T02:04:20.554Z,13.50
2019-05-20T02:04:57.140Z,12.37
2019-05-20T02:05:34.116Z,12.00
2019-05-20T02:06:10.138Z,13.20
2019-05-20T02:06:46.469Z,11.55
2019-05-20T02:07:23.091Z,13.10
2019-05-20T02:07:59.395Z,13.55
2019-05-20T02:08:34.955Z,12.40
2019-05-20T02:09:11.388Z,13.37
2019-05-20T02:09:48.000Z,12.50
2019-05-20T02:10:23.653Z,12.28
2019-05-20T02:11:00.490Z,14.00
2019-05-20T02:11:36.514Z,13.85
2019-05-20T02:12:12.880Z,14.98
2019-05-20T02:12:48.937Z,13.05
2019-05-20T02:13:27.370Z,13.37
2019-05-20T02:14:07.480Z,13.03
2019-05-20T02:14:49.926Z,13.45
2019-05-20T02:15:34.424Z,12.63
2019-05-20T02:16:10.821Z,13.25
2019-05-20T02:16:47.129Z,13.77
2019-05-20T02:17:23.135Z,13.83
2019-05-20T02:17:58.680Z,12.30
2019-05-20T02:18:35.039Z,13.08
2019-05-20T02:19:11.391Z,12.10
2019-05-20T02:19:46.854Z,12.67
2019-05-20T02:20:22.855Z,14.75
2019-05-20T02:20:59.280Z,12.23
2019-05-20T02:21:35.653Z,12.95
2019-05-20T02:22:11.656Z,13.05
2019-05-20T02:22:48.739Z,12.78
2019-05-20T02:23:24.715Z,14.98
2019-05-20T02:24:00.770Z,13.40
2019-05-20T02:24:36.778Z,14.33
2019-05-20T02:25:13.133Z,13.28
2019-05-20T02:25:50.367Z,12.43
2019-05-20T02:26:27.016Z,13.53
2019-05-20T02:27:02.587Z,12.88
2019-05-20T02:27:40.326Z,12.63
2019-05-20T02:28:17.079Z,12.68
2019-05-20T02:28:53.223Z,13.05
2019-05-20T02:29:29.649Z,12.00
2019-05-20T02:30:06.328Z,13.03
2019-05-20T02:30:42.543Z,12.90
2019-05-20T02:31:18.573Z,12.87
2019-05-20T02:31:55.217Z,15.93
2019-05-20T02:32:30.718Z,12.83
2019-05-20T02:33:07.352Z,12.90
2019-05-20T02:33:51.701Z,12.45
2019-05-20T02:34:22.742Z,12.58
2019-05-20T02:34:59.839Z,12.15
2019-05-20T02:35:36.350Z,13.40
2019-05-20T02:36:12.737Z,12.60
2019-05-20T02:36:48.733Z,14.90
2019-05-20T02:37:26.027Z,14.07
2019-05-20T02:38:01.752Z,12.63
2019-05-20T02:38:37.728Z,14.68
2019-05-20T02:39:14.377Z,13.88
2019-05-20T02:39:50.780Z,13.53
2019-05-20T02:40:27.563Z,13.65
2019-05-20T02:41:04.683Z,12.82
2019-05-20T02:41:40.773Z,13.95
2019-05-20T02:42:16.777Z,13.38
2019-05-20T02:42:53.720Z,13.00
2019-05-20T02:43:30.141Z,14.47
2019-05-20T02:44:06.406Z,12.82
2019-05-20T02:44:42.406Z,13.15
2019-05-20T02:45:18.175Z,12.78
2019-05-20T02:45:54.823Z,12.68
2019-05-20T02:46:31.057Z,14.25
2019-05-20T02:47:06.829Z,13.75
2019-05-20T02:47:43.962Z,14.70
2019-05-20T02:48:19.951Z,12.55
2019-05-20T02:48:55.885Z,13.90
2019-05-20T02:49:31.972Z,13.57
2019-05-20T02:50:08.418Z,14.25
2019-05-20T02:50:44.904Z,13.22
2019-05-20T02:51:31.724Z,15.63
2019-05-20T02:52:07.740Z,12.83
2019-05-20T02:52:44.254Z,13.98
2019-05-20T02:53:20.904Z,13.13
2019-05-20T02:53:58.079Z,13.83
2019-05-20T02:54:33.624Z,13.35
2019-05-20T02:55:09.968Z,11.63
2019-05-20T02:55:46.630Z,13.35
2019-05-20T02:56:22.846Z,12.82
2019-05-20T02:56:59.547Z,11.90
2019-05-20T02:57:36.251Z,13.80
2019-05-20T02:58:11.725Z,12.47
2019-05-20T02:58:47.735Z,13.03
2019-05-20T02:59:24.382Z,12.88
2019-05-20T03:00:00.501Z,13.15
2019-05-20T03:00:37.614Z,13.45
2019-05-20T03:01:13.717Z,12.90
2019-05-20T03:01:49.149Z,15.70
2019-05-20T03:02:25.773Z,12.80
2019-05-20T03:03:02.444Z,13.60
2019-05-20T03:03:37.904Z,13.57
2019-05-20T03:04:14.488Z,12.80
2019-05-20T03:04:51.836Z,13.90
2019-05-20T03:05:28.350Z,11.90
2019-05-20T03:06:04.401Z,12.53
2019-05-20T03:06:41.542Z,14.68
2019-05-20T03:07:17.930Z,13.90
2019-05-20T03:07:54.274Z,11.10
2019-05-20T03:08:30.941Z,12.03
2019-05-20T03:09:07.028Z,13.45
2019-05-20T03:09:43.044Z,12.05
2019-05-20T03:10:19.356Z,11.20
2019-05-20T03:10:55.515Z,10.82
2019-05-20T03:11:32.318Z,16.42
2019-05-20T03:12:08.763Z,13.58
2019-05-20T03:12:44.204Z,11.40
2019-05-20T03:13:20.230Z,11.80
2019-05-20T03:13:56.989Z,15.10
2019-05-20T03:14:32.545Z,12.17
2019-05-20T03:15:08.988Z,10.90
2019-05-20T03:15:45.009Z,12.87
2019-05-20T03:16:21.104Z,12.23
2019-05-20T03:16:57.597Z,13.27
2019-05-20T03:17:33.637Z,11.50
2019-05-20T03:18:09.720Z,11.22
2019-05-20T03:18:45.682Z,11.38
2019-05-20T03:19:21.683Z,11.50
2019-05-20T03:19:57.240Z,10.40
2019-05-20T03:20:33.330Z,11.75
2019-05-20T03:21:09.466Z,10.32
2019-05-20T03:21:45.489Z,10.60
2019-05-20T03:22:22.476Z,11.73
2019-05-20T03:22:59.123Z,10.53
2019-05-20T03:23:35.861Z,10.78
2019-05-20T03:24:12.441Z,10.72
2019-05-20T03:24:49.089Z,10.32
2019-05-20T03:25:24.534Z,13.13
2019-05-20T03:26:00.707Z,9.90
2019-05-20T03:26:36.815Z,10.75
2019-05-20T03:27:12.276Z,10.58
2019-05-20T03:27:49.280Z,10.25
2019-05-20T03:28:25.887Z,10.28
2019-05-20T03:29:01.405Z,10.65
2019-05-20T03:29:38.074Z,10.75
2019-05-20T03:30:14.589Z,10.40
2019-05-20T03:30:50.301Z,10.00
2019-05-20T03:31:26.924Z,10.55
2019-05-20T03:32:03.961Z,10.55
2019-05-20T03:32:39.600Z,12.30
2019-05-20T03:33:16.179Z,11.00
2019-05-20T03:33:52.270Z,10.85
2019-05-20T03:34:45.269Z,11.33
2019-05-20T03:35:07.799Z,10.60
2019-05-20T03:35:44.248Z,11.60
2019-05-20T03:36:19.667Z,11.95
2019-05-20T03:36:56.075Z,10.82
2019-05-20T03:37:33.339Z,10.63
2019-05-20T03:38:08.842Z,12.13
2019-05-20T03:38:45.281Z,11.30
2019-05-20T03:39:21.886Z,11.43
2019-05-20T03:39:57.461Z,12.67
2019-05-20T03:40:33.893Z,11.63
2019-05-20T03:41:10.362Z,11.40
2019-05-20T03:41:46.387Z,10.78
2019-05-20T03:42:23.128Z,14.15
2019-05-20T03:42:59.498Z,11.63
2019-05-20T03:43:35.362Z,11.73
2019-05-20T03:44:11.976Z,11.22
2019-05-20T03:44:48.031Z,12.50
2019-05-20T03:45:23.789Z,11.50
2019-05-20T03:46:00.439Z,12.13
2019-05-20T03:46:37.086Z,12.53
2019-05-20T03:47:12.903Z,12.00
2019-05-20T03:47:49.283Z,11.20
2019-05-20T03:48:25.462Z,12.23
2019-05-20T03:49:01.008Z,12.20
2019-05-20T03:49:37.375Z,11.73
2019-05-20T03:50:13.943Z,11.68
2019-05-20T03:50:49.398Z,11.63
2019-05-20T03:51:25.524Z,11.53
2019-05-20T03:52:01.559Z,11.80
2019-05-20T03:52:37.354Z,12.95
2019-05-20T03:53:13.736Z,12.33
2019-05-20T03:53:50.584Z,12.17
2019-05-20T03:54:26.390Z,13.18
2019-05-20T03:55:02.506Z,11.97
2019-05-20T03:55:39.485Z,11.65
2019-05-20T03:56:14.930Z,13.53
2019-05-20T03:56:51.519Z,12.85
2019-05-20T03:57:27.637Z,12.43
2019-05-20T03:58:03.199Z,15.48
2019-05-20T03:58:39.183Z,12.63
2019-05-20T03:59:15.188Z,14.50
2019-05-20T03:59:51.303Z,13.13
2019-05-20T04:00:45.189Z,14.10
2019-05-20T04:01:22.113Z,13.40
2019-05-20T04:01:57.928Z,13.80
2019-05-20T04:02:34.587Z,12.40
2019-05-20T04:03:10.614Z,12.53
2019-05-20T04:03:46.078Z,13.03
2019-05-20T04:04:24.976Z,12.83
2019-05-20T04:05:02.774Z,12.53
2019-05-20T04:05:39.161Z,13.53
2019-05-20T04:06:15.779Z,13.25
2019-05-20T04:06:52.378Z,12.98
2019-05-20T04:07:28.995Z,14.07
2019-05-20T04:08:05.042Z,13.50
2019-05-20T04:08:41.395Z,12.17
2019-05-20T04:09:17.469Z,12.70
2019-05-20T04:09:54.468Z,12.80
2019-05-20T04:10:30.534Z,12.83
2019-05-20T04:11:06.039Z,12.80
2019-05-20T04:11:42.449Z,12.50
2019-05-20T04:12:18.447Z,12.07
2019-05-20T04:12:53.883Z,12.85
2019-05-20T04:13:34.495Z,13.37
2019-05-20T04:14:08.215Z,12.40
2019-05-20T04:14:43.640Z,12.87
2019-05-20T04:15:20.275Z,14.85
2019-05-20T04:15:56.599Z,12.67
2019-05-20T04:16:32.122Z,13.53
2019-05-20T04:17:08.158Z,12.83
2019-05-20T04:17:44.539Z,14.30
2019-05-20T04:18:20.002Z,12.58
2019-05-20T04:18:58.921Z,13.58
2019-05-20T04:19:35.612Z,12.55
2019-05-20T04:20:11.309Z,12.97
2019-05-20T04:20:47.324Z,12.77
2019-05-20T04:21:23.336Z,12.67
2019-05-20T04:21:59.476Z,13.05
2019-05-20T04:22:35.506Z,11.77
2019-05-20T04:23:11.867Z,12.33
2019-05-20T04:23:47.887Z,12.98
2019-05-20T04:24:23.885Z,13.60
2019-05-20T04:24:59.989Z,12.70
2019-05-20T04:25:35.862Z,13.03
2019-05-20T04:26:11.895Z,12.45
2019-05-20T04:26:49.343Z,12.63
2019-05-20T04:27:25.425Z,11.10
2019-05-20T04:28:02.542Z,11.95
2019-05-20T04:28:38.567Z,11.30
2019-05-20T04:29:14.804Z,11.20
2019-05-20T04:29:50.881Z,11.40
2019-05-20T04:30:26.989Z,11.33
2019-05-20T04:31:02.498Z,12.20
2019-05-20T04:31:38.624Z,11.47
2019-05-20T04:32:14.627Z,15.53
2019-05-20T04:32:51.315Z,12.00
2019-05-20T04:33:27.356Z,12.23
2019-05-20T04:34:03.707Z,12.53
2019-05-20T04:34:40.466Z,11.43
2019-05-20T04:35:21.878Z,10.50
2019-05-20T04:35:54.219Z,10.73
2019-05-20T04:36:30.229Z,10.50
2019-05-20T04:37:06.250Z,10.57
2019-05-20T04:37:42.227Z,10.70
2019-05-20T04:38:18.009Z,10.50
2019-05-20T04:38:58.579Z,9.90
2019-05-20T04:39:34.606Z,10.70
2019-05-20T04:40:10.869Z,11.13
2019-05-20T04:40:46.884Z,11.37
2019-05-20T04:41:23.364Z,11.88
2019-05-20T04:41:59.543Z,10.10
2019-05-20T04:42:35.521Z,10.27
2019-05-20T04:43:11.885Z,10.60
2019-05-20T04:43:47.327Z,11.25
2019-05-20T04:44:23.315Z,9.83
2019-05-20T04:44:59.794Z,10.80
2019-05-20T04:45:36.500Z,11.43
2019-05-20T04:46:13.000Z,10.43
2019-05-20T04:46:49.385Z,10.57
2019-05-20T04:47:25.234Z,10.47
2019-05-20T04:48:01.238Z,9.60
2019-05-20T04:48:38.788Z,12.03
2019-05-20T04:49:14.275Z,10.07
2019-05-20T04:49:50.664Z,9.60
2019-05-20T04:50:26.706Z,10.87
2019-05-20T04:51:02.594Z,10.53
2019-05-20T04:51:39.022Z,12.40
2019-05-20T04:52:15.386Z,10.47
2019-05-20T04:52:51.424Z,10.85
2019-05-20T04:53:28.427Z,10.48
2019-05-20T04:54:04.453Z,11.40
2019-05-20T04:54:40.739Z,9.47
2019-05-20T04:55:17.464Z,10.53
2019-05-20T04:55:54.087Z,10.63
2019-05-20T04:56:29.653Z,10.67
2019-05-20T04:57:06.630Z,10.08
2019-05-20T04:57:42.910Z,10.93
2019-05-20T04:58:18.470Z,10.83
2019-05-20T04:58:54.450Z,10.23
2019-05-20T04:59:31.339Z,10.68
2019-05-20T05:00:07.594Z,11.40
2019-05-20T05:00:55.283Z,10.18
2019-05-20T05:01:31.658Z,10.70
2019-05-20T05:02:07.585Z,11.03
2019-05-20T05:02:44.098Z,11.13
2019-05-20T05:03:20.515Z,11.22
2019-05-20T05:03:55.975Z,10.93
2019-05-20T05:04:32.117Z,10.45
2019-05-20T05:05:08.754Z,10.63
2019-05-20T05:05:44.588Z,10.90
2019-05-20T05:06:21.610Z,10.23
2019-05-20T05:06:57.670Z,11.23
2019-05-20T05:07:33.620Z,10.57
2019-05-20T05:08:10.865Z,10.60
2019-05-20T05:08:47.236Z,11.15
2019-05-20T05:09:22.711Z,10.25
2019-05-20T05:09:59.136Z,9.90
2019-05-20T05:10:36.118Z,9.73
2019-05-20T05:11:11.944Z,10.28
2019-05-20T05:11:48.887Z,9.83
2019-05-20T05:12:25.495Z,10.98
2019-05-20T05:13:02.101Z,10.60
2019-05-20T05:13:38.573Z,10.40
2019-05-20T05:14:15.843Z,10.55
2019-05-20T05:14:51.414Z,10.72
2019-05-20T05:15:28.549Z,12.53
2019-05-20T05:16:04.848Z,11.43
2019-05-20T05:16:41.661Z,11.20
2019-05-20T05:17:18.297Z,11.38
2019-05-20T05:17:54.619Z,11.63
2019-05-20T05:18:30.515Z,11.38
2019-05-20T05:19:06.991Z,12.50
2019-05-20T05:19:44.135Z,13.35
2019-05-20T05:20:19.651Z,11.87
2019-05-20T05:20:56.791Z,12.07
2019-05-20T05:21:33.689Z,12.60
2019-05-20T05:22:09.170Z,12.43
2019-05-20T05:22:45.795Z,12.90
2019-05-20T05:23:22.345Z,12.37
2019-05-20T05:23:59.502Z,12.33
2019-05-20T05:24:36.757Z,13.43
2019-05-20T05:25:14.119Z,12.60
2019-05-20T05:25:50.611Z,13.28
2019-05-20T05:26:26.701Z,13.33
2019-05-20T05:27:03.508Z,15.08
2019-05-20T05:27:39.971Z,14.85
2019-05-20T05:28:16.419Z,16.10
2019-05-20T05:28:52.781Z,14.90
2019-05-20T05:29:29.054Z,15.85
2019-05-20T05:30:06.059Z,16.15
2019-05-20T05:30:43.680Z,17.52
2019-05-20T05:31:19.737Z,17.42
2019-05-20T05:31:56.837Z,17.32
2019-05-20T05:32:43.003Z,17.82
2019-05-20T05:33:19.333Z,17.57
2019-05-20T05:33:55.951Z,17.07
2019-05-20T05:34:33.070Z,16.50
2019-05-20T05:35:09.880Z,17.60
2019-05-20T05:35:53.258Z,17.82
2019-05-20T05:36:23.674Z,19.17
2019-05-20T05:37:00.176Z,18.23
2019-05-20T05:37:37.170Z,19.37
2019-05-20T05:38:13.299Z,18.95
2019-05-20T05:38:49.756Z,20.02
2019-05-20T05:39:25.870Z,19.92
2019-05-20T05:40:02.506Z,19.87
2019-05-20T05:40:38.594Z,21.73
2019-05-20T05:41:15.242Z,19.50
2019-05-20T05:41:51.305Z,20.08
2019-05-20T05:42:26.878Z,21.60
2019-05-20T05:43:03.549Z,21.15
2019-05-20T05:43:39.539Z,21.63
2019-05-20T05:44:15.979Z,21.30
2019-05-20T05:44:52.044Z,20.75
2019-05-20T05:45:33.107Z,21.55
2019-05-20T05:46:09.262Z,21.85
2019-05-20T05:46:46.183Z,22.62
2019-05-20T05:47:22.831Z,22.42
2019-05-20T05:47:58.363Z,22.58
2019-05-20T05:48:34.444Z,22.80
2019-05-20T05:49:11.762Z,22.05
2019-05-20T05:49:47.652Z,22.87
2019-05-20T05:50:23.647Z,21.93
2019-05-20T05:51:00.346Z,22.27
2019-05-20T05:51:35.833Z,22.93
2019-05-20T05:52:12.859Z,24.18
2019-05-20T05:52:49.813Z,22.60
2019-05-20T05:53:25.855Z,23.42
2019-05-20T05:54:02.414Z,22.07
2019-05-20T05:54:38.484Z,22.62
2019-05-20T05:55:14.324Z,20.82
2019-05-20T05:55:50.391Z,23.85
2019-05-20T05:56:26.722Z,21.93
2019-05-20T05:57:02.420Z,22.40
2019-05-20T05:57:39.412Z,21.85
2019-05-20T05:58:16.486Z,25.90
2019-05-20T05:58:51.926Z,23.22
2019-05-20T05:59:29.007Z,23.70
2019-05-20T06:00:05.647Z,23.57
2019-05-20T06:00:41.737Z,23.07
2019-05-20T06:01:17.729Z,25.88
2019-05-20T06:01:54.764Z,22.67
2019-05-20T06:02:30.489Z,23.20
2019-05-20T06:03:07.828Z,23.50
2019-05-20T06:03:44.773Z,24.02
2019-05-20T06:04:21.130Z,23.35
2019-05-20T06:04:57.173Z,22.90
2019-05-20T06:05:33.870Z,25.95
2019-05-20T06:06:12.850Z,23.00
2019-05-20T06:06:48.154Z,24.25
2019-05-20T06:07:24.611Z,22.80
2019-05-20T06:08:00.153Z,23.98
2019-05-20T06:08:36.246Z,23.75
2019-05-20T06:09:12.328Z,23.18
2019-05-20T06:09:47.851Z,24.80
2019-05-20T06:10:24.333Z,24.47
2019-05-20T06:11:00.390Z,23.83
2019-05-20T06:11:36.196Z,22.90
2019-05-20T06:12:12.852Z,25.20
2019-05-20T06:12:48.875Z,26.02
2019-05-20T06:13:25.030Z,23.60
2019-05-20T06:14:01.152Z,25.57
2019-05-20T06:14:37.278Z,25.15
2019-05-20T06:15:13.601Z,25.48
2019-05-20T06:15:49.705Z,24.47
2019-05-20T06:16:35.810Z,26.02
2019-05-20T06:17:04.039Z,24.90
2019-05-20T06:17:40.845Z,26.57
2019-05-20T06:18:17.436Z,28.67
2019-05-20T06:18:52.866Z,25.57
2019-05-20T06:19:29.388Z,26.30
2019-05-20T06:20:05.959Z,29.00
2019-05-20T06:20:41.847Z,30.15
2019-05-20T06:21:18.822Z,26.73
2019-05-20T06:21:55.433Z,26.95
2019-05-20T06:22:30.998Z,28.80
2019-05-20T06:23:07.028Z,28.67
2019-05-20T06:23:43.058Z,29.52
2019-05-20T06:24:18.836Z,29.57
2019-05-20T06:24:55.527Z,26.27
2019-05-20T06:25:31.848Z,31.35
2019-05-20T06:26:07.778Z,28.80
2019-05-20T06:26:44.344Z,33.83
2019-05-20T06:27:20.480Z,30.60
2019-05-20T06:27:56.403Z,31.10
2019-05-20T06:28:32.476Z,30.50
2019-05-20T06:29:09.558Z,32.03
2019-05-20T06:29:46.274Z,28.83
2019-05-20T06:30:26.332Z,29.90
2019-05-20T06:31:02.690Z,30.55
2019-05-20T06:31:38.594Z,30.27
2019-05-20T06:32:14.773Z,30.40
2019-05-20T06:32:50.901Z,29.70
2019-05-20T06:33:26.971Z,28.95
2019-05-20T06:34:03.075Z,28.85
2019-05-20T06:34:42.159Z,30.20
2019-05-20T06:35:16.834Z,34.20
2019-05-20T06:35:52.846Z,32.38
2019-05-20T06:36:28.941Z,29.82
2019-05-20T06:37:06.747Z,31.70
2019-05-20T06:37:45.977Z,34.85
2019-05-20T06:38:45.382Z,34.88
2019-05-20T06:39:21.207Z,30.65
2019-05-20T06:39:57.544Z,32.28
2019-05-20T06:40:33.907Z,29.95
2019-05-20T06:41:09.430Z,29.82
2019-05-20T06:41:46.048Z,31.55
2019-05-20T06:42:22.096Z,30.45
2019-05-20T06:42:57.579Z,29.72
2019-05-20T06:43:33.713Z,30.52
2019-05-20T06:44:10.859Z,31.30
2019-05-20T06:44:53.077Z,30.48
2019-05-20T06:45:24.042Z,28.77
2019-05-20T06:46:01.136Z,28.17
2019-05-20T06:46:36.638Z,31.62
2019-05-20T06:47:12.767Z,29.67
2019-05-20T06:47:49.405Z,29.75
2019-05-20T06:48:25.279Z,31.25
2019-05-20T06:49:01.351Z,31.82
2019-05-20T06:49:38.399Z,32.70
2019-05-20T06:50:13.852Z,31.23
2019-05-20T06:50:50.526Z,31.90
2019-05-20T06:51:26.977Z,32.58
2019-05-20T06:52:02.481Z,31.70
2019-05-20T06:52:39.186Z,32.08
2019-05-20T06:53:15.773Z,34.63
2019-05-20T06:53:52.208Z,31.55
2019-05-20T06:54:28.880Z,30.40
2019-05-20T06:55:07.070Z,29.12
2019-05-20T06:55:42.478Z,32.58
2019-05-20T06:56:19.525Z,31.95
2019-05-20T06:56:56.360Z,31.37
2019-05-20T06:57:32.961Z,33.02
2019-05-20T06:58:09.032Z,31.70
2019-05-20T06:58:45.079Z,32.93
2019-05-20T06:59:20.919Z,32.42
2019-05-20T06:59:57.366Z,30.40
2019-05-20T07:00:36.230Z,30.55
2019-05-20T07:01:12.494Z,30.88
2019-05-20T07:01:48.522Z,31.37
2019-05-20T07:02:24.638Z,32.17
2019-05-20T07:03:00.379Z,33.75
2019-05-20T07:03:36.634Z,31.93
2019-05-20T07:04:13.261Z,32.15
2019-05-20T07:04:49.432Z,30.57
2019-05-20T07:05:26.453Z,32.28
2019-05-20T07:06:03.089Z,31.57
2019-05-20T07:06:46.887Z,33.15
2019-05-20T07:07:20.802Z,32.38
2019-05-20T07:07:55.262Z,32.13
2019-05-20T07:08:31.791Z,30.90
2019-05-20T07:09:08.669Z,34.88
2019-05-20T07:09:46.226Z,32.83
2019-05-20T07:10:22.587Z,34.75
2019-05-20T07:10:59.294Z,32.08
2019-05-20T07:11:35.899Z,32.88
2019-05-20T07:12:11.779Z,32.80
2019-05-20T07:12:48.417Z,34.05
2019-05-20T07:13:24.433Z,31.87
2019-05-20T07:14:00.820Z,33.70
2019-05-20T07:14:36.883Z,33.20
2019-05-20T07:15:13.038Z,36.25
2019-05-20T07:15:49.428Z,38.80
2019-05-20T07:16:25.457Z,29.87
2019-05-20T07:17:02.187Z,30.68
2019-05-20T07:17:38.020Z,30.60
2019-05-20T07:18:14.530Z,30.35
2019-05-20T07:18:52.016Z,30.70
2019-05-20T07:19:28.136Z,32.03
2019-05-20T07:20:04.342Z,29.07
2019-05-20T07:20:41.271Z,29.67
2019-05-20T07:21:16.737Z,29.60
2019-05-20T07:21:53.527Z,31.40
2019-05-20T07:22:29.770Z,30.37
2019-05-20T07:23:05.920Z,31.17
2019-05-20T07:23:42.896Z,30.23
2019-05-20T07:24:19.530Z,31.23
2019-05-20T07:24:55.467Z,30.70
2019-05-20T07:25:32.211Z,27.93
2019-05-20T07:26:08.829Z,30.17
2019-05-20T07:26:45.189Z,28.98
2019-05-20T07:27:21.878Z,31.17
2019-05-20T07:27:58.637Z,31.77
2019-05-20T07:28:34.885Z,32.03
2019-05-20T07:29:11.575Z,35.95
2019-05-20T07:29:47.968Z,30.82
2019-05-20T07:30:23.423Z,34.20
2019-05-20T07:31:00.116Z,31.45
2019-05-20T07:31:36.828Z,33.08
2019-05-20T07:32:12.346Z,34.88
2019-05-20T07:32:49.006Z,32.25
2019-05-20T07:33:25.965Z,33.40
2019-05-20T07:34:02.059Z,31.97
2019-05-20T07:34:39.334Z,32.55
2019-05-20T07:35:29.757Z,30.82
2019-05-20T07:35:54.034Z,33.90
2019-05-20T07:36:31.084Z,35.48
2019-05-20T07:37:07.724Z,33.45
2019-05-20T07:37:44.259Z,28.10
2019-05-20T07:38:21.299Z,29.72
2019-05-20T07:38:58.385Z,31.85
2019-05-20T07:39:34.646Z,27.00
2019-05-20T07:40:11.744Z,30.82
2019-05-20T07:40:48.362Z,29.70
2019-05-20T07:41:24.461Z,27.48
2019-05-20T07:42:01.454Z,30.25
2019-05-20T07:42:40.062Z,29.52
2019-05-20T07:43:16.277Z,30.15
2019-05-20T07:43:53.387Z,33.73
2019-05-20T07:44:30.066Z,31.37
2019-05-20T07:45:07.088Z,30.17
2019-05-20T07:45:44.715Z,30.10
2019-05-20T07:46:22.125Z,31.33
2019-05-20T07:46:58.291Z,29.75
2019-05-20T07:47:35.320Z,32.28
2019-05-20T07:48:12.102Z,34.40
2019-05-20T07:48:48.937Z,33.15
2019-05-20T07:49:26.137Z,31.35
2019-05-20T07:50:03.186Z,34.73
2019-05-20T07:50:41.788Z,31.35
2019-05-20T07:51:19.623Z,31.30
2019-05-20T07:51:57.514Z,32.33
2019-05-20T07:52:34.082Z,35.40
2019-05-20T07:53:13.040Z,31.10